sensor_id;sensor_type;location;lat;lon;timestamp;pressure;altitude;pressure_sealevel;temperature;humidity
73101;BME280;61288;53.446;-2.266;2022-07-23T00:00:54;101622.19;;;14.71;90.69
73101;BME280;61288;53.446;-2.266;2022-07-23T00:03:19;101623.09;;;14.70;90.28
73101;BME280;61288;53.446;-2.266;2022-07-23T00:05:45;101618.75;;;14.71;90.49
73101;BME280;61288;53.446;-2.266;2022-07-23T00:08:11;101615.31;;;14.69;90.63
73101;BME280;61288;53.446;-2.266;2022-07-23T00:10:38;101617.94;;;14.69;90.52
73101;BME280;61288;53.446;-2.266;2022-07-23T00:13:03;101617.06;;;14.68;90.49
73101;BME280;61288;53.446;-2.266;2022-07-23T00:15:29;101613.53;;;14.69;90.59
73101;BME280;61288;53.446;-2.266;2022-07-23T00:17:55;101612.66;;;14.70;90.52
73101;BME280;61288;53.446;-2.266;2022-07-23T00:20:21;101608.31;;;14.69;90.08
73101;BME280;61288;53.446;-2.266;2022-07-23T00:22:47;101614.41;;;14.70;90.28
73101;BME280;61288;53.446;-2.266;2022-07-23T00:25:14;101613.53;;;14.69;90.32
73101;BME280;61288;53.446;-2.266;2022-07-23T00:27:39;101615.31;;;14.69;90.31
73101;BME280;61288;53.446;-2.266;2022-07-23T00:30:05;101612.72;;;14.69;90.32
73101;BME280;61288;53.446;-2.266;2022-07-23T00:32:31;101620.53;;;14.69;90.40
73101;BME280;61288;53.446;-2.266;2022-07-23T00:34:57;101621.34;;;14.71;90.39
73101;BME280;61288;53.446;-2.266;2022-07-23T00:37:23;101608.31;;;14.71;90.16
73101;BME280;61288;53.446;-2.266;2022-07-23T00:39:49;101608.22;;;14.72;90.42
73101;BME280;61288;53.446;-2.266;2022-07-23T00:42:14;101606.53;;;14.71;90.53
73101;BME280;61288;53.446;-2.266;2022-07-23T00:44:40;101608.31;;;14.71;90.25
73101;BME280;61288;53.446;-2.266;2022-07-23T00:47:06;101600.47;;;14.71;90.50
73101;BME280;61288;53.446;-2.266;2022-07-23T00:49:32;101599.63;;;14.70;90.27
73101;BME280;61288;53.446;-2.266;2022-07-23T00:52:00;101597.78;;;14.72;90.31
73101;BME280;61288;53.446;-2.266;2022-07-23T00:54:27;101603.09;;;14.71;90.47
73101;BME280;61288;53.446;-2.266;2022-07-23T00:56:53;101596.09;;;14.71;90.13
73101;BME280;61288;53.446;-2.266;2022-07-23T00:59:20;101598.66;;;14.73;90.42
73101;BME280;61288;53.446;-2.266;2022-07-23T01:01:46;101596.09;;;14.71;90.58
73101;BME280;61288;53.446;-2.266;2022-07-23T01:04:15;101595.19;;;14.72;90.42
73101;BME280;61288;53.446;-2.266;2022-07-23T01:06:41;101596.03;;;14.73;90.22
73101;BME280;61288;53.446;-2.266;2022-07-23T01:09:08;101597.69;;;14.76;90.49
73101;BME280;61288;53.446;-2.266;2022-07-23T01:11:35;101598.50;;;14.76;90.74
73101;BME280;61288;53.446;-2.266;2022-07-23T01:14:15;101593.34;;;14.75;90.54
73101;BME280;61288;53.446;-2.266;2022-07-23T01:16:42;101592.47;;;14.76;90.64
73101;BME280;61288;53.446;-2.266;2022-07-23T01:19:09;101593.34;;;14.75;90.40
73101;BME280;61288;53.446;-2.266;2022-07-23T01:21:40;101591.66;;;14.73;90.28
73101;BME280;61288;53.446;-2.266;2022-07-23T01:24:07;101583.00;;;14.73;89.94
73101;BME280;61288;53.446;-2.266;2022-07-23T01:26:34;101585.66;;;14.71;89.72
73101;BME280;61288;53.446;-2.266;2022-07-23T01:29:00;101586.53;;;14.72;90.28
73101;BME280;61288;53.446;-2.266;2022-07-23T01:31:26;101583.09;;;14.70;90.39
73101;BME280;61288;53.446;-2.266;2022-07-23T01:33:52;101586.53;;;14.72;90.44
73101;BME280;61288;53.446;-2.266;2022-07-23T01:36:18;101584.81;;;14.71;90.04
73101;BME280;61288;53.446;-2.266;2022-07-23T01:38:44;101590.94;;;14.70;89.95
73101;BME280;61288;53.446;-2.266;2022-07-23T01:41:10;101577.00;;;14.71;89.96
73101;BME280;61288;53.446;-2.266;2022-07-23T01:43:36;101591.78;;;14.70;89.96
73101;BME280;61288;53.446;-2.266;2022-07-23T01:46:01;101584.06;;;14.67;90.16
73101;BME280;61288;53.446;-2.266;2022-07-23T01:48:27;101582.47;;;14.65;89.78
73101;BME280;61288;53.446;-2.266;2022-07-23T01:50:53;101587.72;;;14.63;90.01
73101;BME280;61288;53.446;-2.266;2022-07-23T01:53:18;101580.81;;;14.62;90.16
73101;BME280;61288;53.446;-2.266;2022-07-23T01:55:44;101572.09;;;14.63;90.61
73101;BME280;61288;53.446;-2.266;2022-07-23T01:58:10;101572.03;;;14.65;90.52
73101;BME280;61288;53.446;-2.266;2022-07-23T02:00:36;101573.84;;;14.63;90.45
73101;BME280;61288;53.446;-2.266;2022-07-23T02:03:01;101574.81;;;14.60;89.90
73101;BME280;61288;53.446;-2.266;2022-07-23T02:05:27;101575.75;;;14.59;90.25
73101;BME280;61288;53.446;-2.266;2022-07-23T02:07:58;101575.09;;;14.54;89.73
73101;BME280;61288;53.446;-2.266;2022-07-23T02:10:25;101574.38;;;14.50;89.65
73101;BME280;61288;53.446;-2.266;2022-07-23T02:12:51;101572.75;;;14.48;89.87
73101;BME280;61288;53.446;-2.266;2022-07-23T02:15:18;101576.34;;;14.45;89.17
73101;BME280;61288;53.446;-2.266;2022-07-23T02:17:44;101578.16;;;14.43;88.88
73101;BME280;61288;53.446;-2.266;2022-07-23T02:20:11;101575.59;;;14.41;89.40
73101;BME280;61288;53.446;-2.266;2022-07-23T02:22:37;101576.59;;;14.39;89.32
73101;BME280;61288;53.446;-2.266;2022-07-23T02:25:04;101574.13;;;14.36;89.71
73101;BME280;61288;53.446;-2.266;2022-07-23T02:27:31;101576.91;;;14.31;89.74
73101;BME280;61288;53.446;-2.266;2022-07-23T02:29:56;101579.59;;;14.29;89.53
73101;BME280;61288;53.446;-2.266;2022-07-23T02:32:23;101577.91;;;14.28;89.33
73101;BME280;61288;53.446;-2.266;2022-07-23T02:34:50;101582.25;;;14.28;89.47
73101;BME280;61288;53.446;-2.266;2022-07-23T02:37:16;101575.19;;;14.32;90.05
73101;BME280;61288;53.446;-2.266;2022-07-23T02:39:42;101574.41;;;14.29;90.11
73101;BME280;61288;53.446;-2.266;2022-07-23T02:42:08;101576.22;;;14.27;89.19
73101;BME280;61288;53.446;-2.266;2022-07-23T02:44:33;101571.97;;;14.25;89.37
73101;BME280;61288;53.446;-2.266;2022-07-23T02:46:59;101572.03;;;14.23;89.64
73101;BME280;61288;53.446;-2.266;2022-07-23T02:49:25;101574.75;;;14.20;89.32
73101;BME280;61288;53.446;-2.266;2022-07-23T02:51:51;101578.53;;;14.13;89.28
73101;BME280;61288;53.446;-2.266;2022-07-23T02:54:17;101578.84;;;14.05;88.95
73101;BME280;61288;53.446;-2.266;2022-07-23T02:56:43;101579.06;;;14.00;88.57
73101;BME280;61288;53.446;-2.266;2022-07-23T02:59:09;101574.94;;;13.95;88.79
73101;BME280;61288;53.446;-2.266;2022-07-23T03:01:35;101575.94;;;13.92;88.78
73101;BME280;61288;53.446;-2.266;2022-07-23T03:04:01;101573.31;;;13.92;89.55
73101;BME280;61288;53.446;-2.266;2022-07-23T03:06:26;101571.59;;;13.91;89.54
73101;BME280;61288;53.446;-2.266;2022-07-23T03:08:52;101569.13;;;13.88;89.26
73101;BME280;61288;53.446;-2.266;2022-07-23T03:11:18;101570.28;;;13.81;88.88
73101;BME280;61288;53.446;-2.266;2022-07-23T03:13:44;101571.16;;;13.81;89.35
73101;BME280;61288;53.446;-2.266;2022-07-23T03:16:09;101567.88;;;13.76;88.70
73101;BME280;61288;53.446;-2.266;2022-07-23T03:18:36;101567.19;;;13.71;88.61
73101;BME280;61288;53.446;-2.266;2022-07-23T03:21:04;101575.13;;;13.68;88.61
73101;BME280;61288;53.446;-2.266;2022-07-23T03:23:29;101572.66;;;13.65;88.57
73101;BME280;61288;53.446;-2.266;2022-07-23T03:25:58;101579.75;;;13.61;88.43
73101;BME280;61288;53.446;-2.266;2022-07-23T03:28:24;101577.31;;;13.56;88.37
73101;BME280;61288;53.446;-2.266;2022-07-23T03:30:49;101572.28;;;13.52;88.49
73101;BME280;61288;53.446;-2.266;2022-07-23T03:33:17;101577.50;;;13.52;88.71
73101;BME280;61288;53.446;-2.266;2022-07-23T03:35:47;101573.97;;;13.53;89.26
73101;BME280;61288;53.446;-2.266;2022-07-23T03:38:14;101566.25;;;13.51;89.55
73101;BME280;61288;53.446;-2.266;2022-07-23T03:40:41;101565.38;;;13.51;89.60
73101;BME280;61288;53.446;-2.266;2022-07-23T03:43:07;101563.81;;;13.47;89.61
73101;BME280;61288;53.446;-2.266;2022-07-23T03:45:33;101565.84;;;13.38;89.04
73101;BME280;61288;53.446;-2.266;2022-07-23T03:47:59;101569.34;;;13.37;89.31
73101;BME280;61288;53.446;-2.266;2022-07-23T03:50:24;101564.31;;;13.33;89.44
73101;BME280;61288;53.446;-2.266;2022-07-23T03:52:50;101562.56;;;13.33;89.67
73101;BME280;61288;53.446;-2.266;2022-07-23T03:55:16;101566.25;;;13.27;88.75
73101;BME280;61288;53.446;-2.266;2022-07-23T03:57:42;101564.94;;;13.15;88.33
73101;BME280;61288;53.446;-2.266;2022-07-23T04:00:10;101571.34;;;13.07;88.33
73101;BME280;61288;53.446;-2.266;2022-07-23T04:02:37;101567.81;;;13.08;89.08
73101;BME280;61288;53.446;-2.266;2022-07-23T04:05:03;101570.53;;;13.05;88.42
73101;BME280;61288;53.446;-2.266;2022-07-23T04:07:29;101562.06;;;12.99;88.04
73101;BME280;61288;53.446;-2.266;2022-07-23T04:09:56;101557.75;;;12.98;88.48
73101;BME280;61288;53.446;-2.266;2022-07-23T04:12:22;101541.25;;;12.99;89.00
73101;BME280;61288;53.446;-2.266;2022-07-23T04:14:47;101536.97;;;12.98;89.10
73101;BME280;61288;53.446;-2.266;2022-07-23T04:17:13;101531.94;;;12.94;89.14
73101;BME280;61288;53.446;-2.266;2022-07-23T04:19:39;101531.09;;;12.93;89.44
73101;BME280;61288;53.446;-2.266;2022-07-23T04:22:15;101538.09;;;12.91;89.61
73101;BME280;61288;53.446;-2.266;2022-07-23T04:24:41;101534.63;;;12.91;89.70
73101;BME280;61288;53.446;-2.266;2022-07-23T04:27:07;101528.59;;;12.90;89.92
73101;BME280;61288;53.446;-2.266;2022-07-23T04:29:33;101536.56;;;12.85;89.55
73101;BME280;61288;53.446;-2.266;2022-07-23T04:31:59;101536.00;;;12.77;88.80
73101;BME280;61288;53.446;-2.266;2022-07-23T04:34:25;101535.31;;;12.72;88.66
73101;BME280;61288;53.446;-2.266;2022-07-23T04:36:52;101541.34;;;12.73;89.24
73101;BME280;61288;53.446;-2.266;2022-07-23T04:39:18;101539.66;;;12.71;89.16
73101;BME280;61288;53.446;-2.266;2022-07-23T04:41:44;101543.94;;;12.73;89.49
73101;BME280;61288;53.446;-2.266;2022-07-23T04:44:10;101540.41;;;12.75;89.87
73101;BME280;61288;53.446;-2.266;2022-07-23T04:46:36;101540.19;;;12.81;90.30
73101;BME280;61288;53.446;-2.266;2022-07-23T04:49:01;101534.88;;;12.84;90.20
73101;BME280;61288;53.446;-2.266;2022-07-23T04:51:27;101533.91;;;12.87;90.50
73101;BME280;61288;53.446;-2.266;2022-07-23T04:53:54;101532.88;;;12.91;90.87
73101;BME280;61288;53.446;-2.266;2022-07-23T04:56:20;101537.06;;;12.95;90.80
73101;BME280;61288;53.446;-2.266;2022-07-23T04:58:46;101532.72;;;12.96;90.29
73101;BME280;61288;53.446;-2.266;2022-07-23T05:01:11;101530.13;;;12.96;90.18
73101;BME280;61288;53.446;-2.266;2022-07-23T05:03:37;101533.44;;;12.99;90.27
73101;BME280;61288;53.446;-2.266;2022-07-23T05:06:03;101536.72;;;13.05;90.46
73101;BME280;61288;53.446;-2.266;2022-07-23T05:08:30;101536.50;;;13.11;90.52
73101;BME280;61288;53.446;-2.266;2022-07-23T05:10:57;101540.69;;;13.15;90.53
73101;BME280;61288;53.446;-2.266;2022-07-23T05:13:23;101535.38;;;13.18;90.44
73101;BME280;61288;53.446;-2.266;2022-07-23T05:15:49;101538.81;;;13.19;90.32
73101;BME280;61288;53.446;-2.266;2022-07-23T05:18:15;101531.75;;;13.22;90.30
73101;BME280;61288;53.446;-2.266;2022-07-23T05:20:40;101537.59;;;13.27;90.50
73101;BME280;61288;53.446;-2.266;2022-07-23T05:23:06;101524.44;;;13.32;90.72
73101;BME280;61288;53.446;-2.266;2022-07-23T05:25:32;101525.94;;;13.38;91.02
73101;BME280;61288;53.446;-2.266;2022-07-23T07:04:43;101533.44;;;14.73;87.44
73101;BME280;61288;53.446;-2.266;2022-07-23T07:07:08;101525.47;;;14.76;88.00
73101;BME280;61288;53.446;-2.266;2022-07-23T07:09:34;101522.81;;;14.78;87.51
73101;BME280;61288;53.446;-2.266;2022-07-23T07:12:00;101517.59;;;14.78;87.66
73101;BME280;61288;53.446;-2.266;2022-07-23T07:14:29;101524.56;;;14.77;86.87
73101;BME280;61288;53.446;-2.266;2022-07-23T07:16:55;101516.91;;;14.72;86.93
73101;BME280;61288;53.446;-2.266;2022-07-23T07:19:20;101519.53;;;14.72;86.85
73101;BME280;61288;53.446;-2.266;2022-07-23T07:21:46;101516.09;;;14.72;86.09
73101;BME280;61288;53.446;-2.266;2022-07-23T07:24:12;101516.00;;;14.73;85.49
73101;BME280;61288;53.446;-2.266;2022-07-23T07:26:38;101524.50;;;14.79;86.47
73101;BME280;61288;53.446;-2.266;2022-07-23T07:29:04;101531.41;;;14.80;86.01
73101;BME280;61288;53.446;-2.266;2022-07-23T07:31:30;101534.78;;;14.82;85.97
73101;BME280;61288;53.446;-2.266;2022-07-23T07:33:56;101533.72;;;14.86;85.17
73101;BME280;61288;53.446;-2.266;2022-07-23T07:36:22;101520.53;;;14.89;85.25
73101;BME280;61288;53.446;-2.266;2022-07-23T07:38:48;101509.66;;;14.98;85.71
73101;BME280;61288;53.446;-2.266;2022-07-23T07:41:14;101509.38;;;15.05;85.47
73101;BME280;61288;53.446;-2.266;2022-07-23T07:43:41;101519.69;;;15.08;84.31
73101;BME280;61288;53.446;-2.266;2022-07-23T07:46:06;101520.47;;;15.10;84.26
73101;BME280;61288;53.446;-2.266;2022-07-23T07:48:37;101515.13;;;15.13;86.34
73101;BME280;61288;53.446;-2.266;2022-07-23T07:51:06;101521.94;;;15.15;84.84
73101;BME280;61288;53.446;-2.266;2022-07-23T07:53:31;101521.25;;;15.12;84.65
73101;BME280;61288;53.446;-2.266;2022-07-23T07:55:57;101523.00;;;15.11;84.37
73101;BME280;61288;53.446;-2.266;2022-07-23T07:58:23;101522.22;;;15.09;83.84
73101;BME280;61288;53.446;-2.266;2022-07-23T08:00:48;101521.09;;;15.15;84.21
73101;BME280;61288;53.446;-2.266;2022-07-23T08:03:15;101519.75;;;15.25;82.93
73101;BME280;61288;53.446;-2.266;2022-07-23T08:05:40;101523.41;;;15.40;82.38
73101;BME280;61288;53.446;-2.266;2022-07-23T08:08:07;101518.44;;;15.53;82.02
73101;BME280;61288;53.446;-2.266;2022-07-23T08:10:34;101510.13;;;15.63;82.71
73101;BME280;61288;53.446;-2.266;2022-07-23T08:13:00;101508.84;;;15.71;83.00
73101;BME280;61288;53.446;-2.266;2022-07-23T08:15:30;101513.06;;;15.74;81.72
73101;BME280;61288;53.446;-2.266;2022-07-23T08:17:57;101517.38;;;15.75;82.67
73101;BME280;61288;53.446;-2.266;2022-07-23T08:20:24;101520.06;;;15.73;82.22
73101;BME280;61288;53.446;-2.266;2022-07-23T08:22:55;101522.69;;;15.73;82.11
73101;BME280;61288;53.446;-2.266;2022-07-23T08:25:30;101520.13;;;15.72;81.86
73101;BME280;61288;53.446;-2.266;2022-07-23T08:27:57;101518.44;;;15.71;81.79
73101;BME280;61288;53.446;-2.266;2022-07-23T08:30:23;101518.53;;;15.69;81.01
73101;BME280;61288;53.446;-2.266;2022-07-23T08:35:16;101522.47;;;15.78;82.38
73101;BME280;61288;53.446;-2.266;2022-07-23T08:37:42;101520.31;;;15.86;83.21
73101;BME280;61288;53.446;-2.266;2022-07-23T08:40:09;101506.03;;;15.94;82.79
73101;BME280;61288;53.446;-2.266;2022-07-23T08:42:35;101502.88;;;16.05;81.89
73101;BME280;61288;53.446;-2.266;2022-07-23T08:45:02;101511.56;;;16.05;80.30
73101;BME280;61288;53.446;-2.266;2022-07-23T08:47:29;101497.56;;;16.06;80.67
73101;BME280;61288;53.446;-2.266;2022-07-23T08:49:56;101506.97;;;16.10;79.97
73101;BME280;61288;53.446;-2.266;2022-07-23T08:52:25;101506.72;;;16.15;80.38
73101;BME280;61288;53.446;-2.266;2022-07-23T08:54:51;101508.78;;;16.26;81.50
73101;BME280;61288;53.446;-2.266;2022-07-23T08:57:18;101507.47;;;16.35;80.94
73101;BME280;61288;53.446;-2.266;2022-07-23T08:59:44;101504.53;;;16.41;79.01
73101;BME280;61288;53.446;-2.266;2022-07-23T09:02:10;101503.44;;;16.45;79.00
73101;BME280;61288;53.446;-2.266;2022-07-23T09:04:36;101508.00;;;16.41;76.74
73101;BME280;61288;53.446;-2.266;2022-07-23T09:07:02;101505.50;;;16.38;78.12
73101;BME280;61288;53.446;-2.266;2022-07-23T09:09:28;101508.13;;;16.38;77.30
73101;BME280;61288;53.446;-2.266;2022-07-23T09:12:07;101502.13;;;16.36;77.68
73101;BME280;61288;53.446;-2.266;2022-07-23T09:14:41;101505.44;;;16.40;76.72
73101;BME280;61288;53.446;-2.266;2022-07-23T09:17:17;101495.69;;;16.43;77.61
73101;BME280;61288;53.446;-2.266;2022-07-23T09:19:45;101501.50;;;16.49;75.99
73101;BME280;61288;53.446;-2.266;2022-07-23T09:22:18;101504.72;;;16.54;77.10
73101;BME280;61288;53.446;-2.266;2022-07-23T09:25:15;101510.66;;;16.57;77.64
73101;BME280;61288;53.446;-2.266;2022-07-23T09:28:00;101509.84;;;16.55;75.81
73101;BME280;61288;53.446;-2.266;2022-07-23T09:30:31;101513.41;;;16.54;76.72
73101;BME280;61288;53.446;-2.266;2022-07-23T09:35:52;101496.13;;;16.68;74.22
73101;BME280;61288;53.446;-2.266;2022-07-23T09:38:20;101502.03;;;16.71;73.55
73101;BME280;61288;53.446;-2.266;2022-07-23T09:40:47;101502.88;;;16.72;74.06
73101;BME280;61288;53.446;-2.266;2022-07-23T09:43:31;101502.72;;;16.75;73.97
73101;BME280;61288;53.446;-2.266;2022-07-23T09:46:16;101504.50;;;16.74;73.81
73101;BME280;61288;53.446;-2.266;2022-07-23T09:48:42;101494.19;;;16.71;73.99
73101;BME280;61288;53.446;-2.266;2022-07-23T09:51:07;101496.91;;;16.70;73.54
73101;BME280;61288;53.446;-2.266;2022-07-23T09:53:33;101504.75;;;16.70;74.11
73101;BME280;61288;53.446;-2.266;2022-07-23T09:56:00;101505.34;;;16.75;75.38
73101;BME280;61288;53.446;-2.266;2022-07-23T09:58:28;101509.56;;;16.78;72.18
73101;BME280;61288;53.446;-2.266;2022-07-23T10:00:56;101497.91;;;16.83;71.67
73101;BME280;61288;53.446;-2.266;2022-07-23T10:03:24;101500.63;;;16.82;70.42
73101;BME280;61288;53.446;-2.266;2022-07-23T10:05:50;101495.47;;;16.80;70.54
73101;BME280;61288;53.446;-2.266;2022-07-23T10:08:18;101495.72;;;16.75;70.86
73101;BME280;61288;53.446;-2.266;2022-07-23T10:10:47;101493.69;;;16.65;67.26
73101;BME280;61288;53.446;-2.266;2022-07-23T10:13:14;101501.88;;;16.58;68.05
73101;BME280;61288;53.446;-2.266;2022-07-23T10:15:41;101502.28;;;16.51;66.98
73101;BME280;61288;53.446;-2.266;2022-07-23T10:18:10;101496.59;;;16.42;67.40
73101;BME280;61288;53.446;-2.266;2022-07-23T10:20:36;101485.44;;;16.39;66.21
73101;BME280;61288;53.446;-2.266;2022-07-23T10:23:14;101499.50;;;16.36;65.72
73101;BME280;61288;53.446;-2.266;2022-07-23T10:25:49;101489.97;;;16.35;68.54
73101;BME280;61288;53.446;-2.266;2022-07-23T10:31:17;101493.47;;;16.36;70.83
73101;BME280;61288;53.446;-2.266;2022-07-23T10:36:40;101486.53;;;16.35;69.02
73101;BME280;61288;53.446;-2.266;2022-07-23T10:39:08;101489.97;;;16.35;70.13
73101;BME280;61288;53.446;-2.266;2022-07-23T10:41:39;101491.16;;;16.29;69.84
73101;BME280;61288;53.446;-2.266;2022-07-23T10:44:19;101495.78;;;16.24;70.21
73101;BME280;61288;53.446;-2.266;2022-07-23T10:49:41;101495.00;;;16.22;72.06
73101;BME280;61288;53.446;-2.266;2022-07-23T10:52:18;101501.03;;;16.24;72.93
73101;BME280;61288;53.446;-2.266;2022-07-23T10:54:53;101501.84;;;16.25;73.83
73101;BME280;61288;53.446;-2.266;2022-07-23T10:57:23;101500.31;;;16.21;74.74
73101;BME280;61288;53.446;-2.266;2022-07-23T11:02:42;101502.09;;;16.20;76.59
73101;BME280;61288;53.446;-2.266;2022-07-23T11:05:12;101494.88;;;16.25;76.59
73101;BME280;61288;53.446;-2.266;2022-07-23T11:10:49;101494.63;;;16.30;75.52
73101;BME280;61288;53.446;-2.266;2022-07-23T11:16:19;101492.91;;;16.29;75.99
73101;BME280;61288;53.446;-2.266;2022-07-23T11:24:14;101498.13;;;16.46;75.21
73101;BME280;61288;53.446;-2.266;2022-07-23T11:32:05;101486.94;;;16.60;74.29
73101;BME280;61288;53.446;-2.266;2022-07-23T11:34:43;101493.00;;;16.61;73.59
73101;BME280;61288;53.446;-2.266;2022-07-23T11:37:11;101485.31;;;16.58;73.63
73101;BME280;61288;53.446;-2.266;2022-07-23T11:39:38;101488.00;;;16.56;74.88
73101;BME280;61288;53.446;-2.266;2022-07-23T11:42:06;101481.94;;;16.56;75.15
73101;BME280;61288;53.446;-2.266;2022-07-23T11:44:39;101481.34;;;16.51;75.30
73101;BME280;61288;53.446;-2.266;2022-07-23T11:47:09;101480.75;;;16.45;76.16
73101;BME280;61288;53.446;-2.266;2022-07-23T11:49:36;101480.22;;;16.39;77.08
73101;BME280;61288;53.446;-2.266;2022-07-23T11:52:13;101486.88;;;16.28;77.95
73101;BME280;61288;53.446;-2.266;2022-07-23T11:54:53;101488.09;;;16.21;79.23
73101;BME280;61288;53.446;-2.266;2022-07-23T11:57:28;101486.66;;;16.15;80.77
73101;BME280;61288;53.446;-2.266;2022-07-23T11:59:57;101492.81;;;16.14;80.45
73101;BME280;61288;53.446;-2.266;2022-07-23T12:02:24;101490.19;;;16.14;80.72
73101;BME280;61288;53.446;-2.266;2022-07-23T12:04:51;101475.50;;;16.12;80.58
73101;BME280;61288;53.446;-2.266;2022-07-23T12:07:30;101480.72;;;16.12;81.52
73101;BME280;61288;53.446;-2.266;2022-07-23T12:09:59;101476.25;;;16.14;81.68
73101;BME280;61288;53.446;-2.266;2022-07-23T12:12:25;101470.38;;;16.10;81.16
73101;BME280;61288;53.446;-2.266;2022-07-23T12:14:52;101472.34;;;16.05;81.73
73101;BME280;61288;53.446;-2.266;2022-07-23T12:17:20;101473.09;;;16.07;82.38
73101;BME280;61288;53.446;-2.266;2022-07-23T12:19:46;101466.19;;;16.06;83.06
73101;BME280;61288;53.446;-2.266;2022-07-23T12:22:12;101469.72;;;16.05;82.35
73101;BME280;61288;53.446;-2.266;2022-07-23T12:25:00;101464.44;;;16.07;82.26
73101;BME280;61288;53.446;-2.266;2022-07-23T12:27:26;101469.44;;;16.11;83.12
73101;BME280;61288;53.446;-2.266;2022-07-23T12:29:53;101463.19;;;16.14;83.97
73101;BME280;61288;53.446;-2.266;2022-07-23T12:32:28;101462.25;;;16.15;83.57
73101;BME280;61288;53.446;-2.266;2022-07-23T12:35:08;101454.69;;;16.10;82.81
73101;BME280;61288;53.446;-2.266;2022-07-23T12:37:39;101459.03;;;16.10;83.44
73101;BME280;61288;53.446;-2.266;2022-07-23T12:40:22;101459.97;;;16.09;83.29
73101;BME280;61288;53.446;-2.266;2022-07-23T12:42:58;101447.75;;;16.09;83.37
73101;BME280;61288;53.446;-2.266;2022-07-23T12:45:26;101450.22;;;16.12;83.23
73101;BME280;61288;53.446;-2.266;2022-07-23T12:47:54;101443.91;;;16.16;82.96
73101;BME280;61288;53.446;-2.266;2022-07-23T12:50:49;101436.66;;;16.22;83.39
73101;BME280;61288;53.446;-2.266;2022-07-23T12:53:23;101450.09;;;16.31;83.33
73101;BME280;61288;53.446;-2.266;2022-07-23T12:55:50;101441.16;;;16.36;83.42
73101;BME280;61288;53.446;-2.266;2022-07-23T12:58:20;101447.13;;;16.38;83.12
73101;BME280;61288;53.446;-2.266;2022-07-23T13:00:56;101436.59;;;16.39;82.83
73101;BME280;61288;53.446;-2.266;2022-07-23T13:03:31;101427.22;;;16.35;82.06
73101;BME280;61288;53.446;-2.266;2022-07-23T13:05:58;101412.56;;;16.33;82.46
73101;BME280;61288;53.446;-2.266;2022-07-23T13:08:26;101409.94;;;16.33;82.43
73101;BME280;61288;53.446;-2.266;2022-07-23T13:10:52;101406.28;;;16.35;82.97
73101;BME280;61288;53.446;-2.266;2022-07-23T13:13:25;101409.00;;;16.34;82.00
73101;BME280;61288;53.446;-2.266;2022-07-23T13:15:52;101402.84;;;16.35;81.71
73101;BME280;61288;53.446;-2.266;2022-07-23T13:18:19;101400.13;;;16.36;82.27
73101;BME280;61288;53.446;-2.266;2022-07-23T13:20:47;101395.53;;;16.41;81.97
73101;BME280;61288;53.446;-2.266;2022-07-23T13:23:13;101397.03;;;16.45;81.74
73101;BME280;61288;53.446;-2.266;2022-07-23T13:25:40;101390.72;;;16.50;81.73
73101;BME280;61288;53.446;-2.266;2022-07-23T13:28:06;101387.81;;;16.54;82.03
73101;BME280;61288;53.446;-2.266;2022-07-23T13:30:33;101392.81;;;16.59;81.20
73101;BME280;61288;53.446;-2.266;2022-07-23T13:33:00;101390.03;;;16.62;80.62
73101;BME280;61288;53.446;-2.266;2022-07-23T13:35:26;101389.69;;;16.68;80.98
73101;BME280;61288;53.446;-2.266;2022-07-23T13:37:52;101390.94;;;16.77;81.17
73101;BME280;61288;53.446;-2.266;2022-07-23T13:40:18;101389.66;;;16.84;81.14
73101;BME280;61288;53.446;-2.266;2022-07-23T13:42:43;101390.25;;;16.89;81.25
73101;BME280;61288;53.446;-2.266;2022-07-23T13:45:09;101390.19;;;16.91;81.71
73101;BME280;61288;53.446;-2.266;2022-07-23T13:47:38;101388.09;;;16.98;82.09
73101;BME280;61288;53.446;-2.266;2022-07-23T13:50:06;101388.00;;;16.99;82.46
73101;BME280;61288;53.446;-2.266;2022-07-23T13:52:32;101381.97;;;16.97;82.44
73101;BME280;61288;53.446;-2.266;2022-07-23T13:55:01;101378.38;;;17.00;81.71
73101;BME280;61288;53.446;-2.266;2022-07-23T13:57:29;101367.72;;;17.03;81.78
73101;BME280;61288;53.446;-2.266;2022-07-23T13:59:55;101363.16;;;17.07;81.61
73101;BME280;61288;53.446;-2.266;2022-07-23T14:02:24;101362.88;;;17.11;81.62
73101;BME280;61288;53.446;-2.266;2022-07-23T14:04:49;101353.91;;;17.15;81.95
73101;BME280;61288;53.446;-2.266;2022-07-23T14:07:16;101361.53;;;17.20;82.23
73101;BME280;61288;53.446;-2.266;2022-07-23T14:09:41;101351.78;;;17.22;81.56
73101;BME280;61288;53.446;-2.266;2022-07-23T14:12:11;101360.41;;;17.24;80.76
73101;BME280;61288;53.446;-2.266;2022-07-23T14:14:36;101356.84;;;17.25;80.54
73101;BME280;61288;53.446;-2.266;2022-07-23T14:17:02;101361.16;;;17.26;80.80
73101;BME280;61288;53.446;-2.266;2022-07-23T14:19:29;101348.91;;;17.27;79.64
73101;BME280;61288;53.446;-2.266;2022-07-23T14:21:54;101347.81;;;17.31;79.57
73101;BME280;61288;53.446;-2.266;2022-07-23T14:24:20;101340.59;;;17.35;79.19
73101;BME280;61288;53.446;-2.266;2022-07-23T14:26:46;101341.16;;;17.40;78.60
73101;BME280;61288;53.446;-2.266;2022-07-23T14:29:12;101342.50;;;17.47;77.94
73101;BME280;61288;53.446;-2.266;2022-07-23T14:31:38;101334.16;;;17.55;77.96
73101;BME280;61288;53.446;-2.266;2022-07-23T14:34:05;101327.44;;;17.65;77.20
73101;BME280;61288;53.446;-2.266;2022-07-23T14:36:32;101325.28;;;17.72;77.05
73101;BME280;61288;53.446;-2.266;2022-07-23T14:38:57;101317.88;;;17.79;76.86
73101;BME280;61288;53.446;-2.266;2022-07-23T14:41:23;101316.50;;;17.87;75.74
73101;BME280;61288;53.446;-2.266;2022-07-23T14:43:49;101312.47;;;17.96;76.35
73101;BME280;61288;53.446;-2.266;2022-07-23T14:46:15;101311.91;;;18.06;76.32
73101;BME280;61288;53.446;-2.266;2022-07-23T14:48:40;101314.81;;;18.15;75.98
73101;BME280;61288;53.446;-2.266;2022-07-23T14:51:06;101317.13;;;18.20;75.51
73101;BME280;61288;53.446;-2.266;2022-07-23T14:53:32;101319.25;;;18.28;75.11